Latest Weather Observations for Noarlunga

IDS60901

Issued at 8:41 pm CST Thursday 30 June 2022 (issued every 10 minutes, with the page automatically refreshed every 10 minutes)

About weather observations | Map of Adelaide area stations | Latest observations for Adelaide area | Other Formats
Station Details ID: 023885 Name: NOARLUNGA Lat: -35.16 Lon: 138.51 Height: 55.0 m
Data from the previous 72 hours. | See also: Recent months at Noarlunga
Date/Time
CST
Temp
°C
App
Temp
°C
Dew
Point
°C
Rel
Hum
%
Delta-T
°C
Wind Press
QNH
hPa
Press
MSL
hPa
Rain since
9am
mm
Dir  Spd
km/h
Gust
km/h
Spd
kts
Gust
kts
30/08:30pm 9.4 9.0 8.2 92 0.6 CALM 0 2 0 1 - - 0.0
30/08:00pm 9.9 9.3 8.8 93 0.5 SSE 2 7 1 4 - - 0.0
30/07:30pm 10.0 8.9 8.6 91 0.7 SSE 4 6 2 3 - - 0.0
30/07:00pm 10.3 8.9 8.7 90 0.8 SSE 6 9 3 5 - - 0.0
30/06:30pm 10.7 9.3 8.8 88 0.9 SSE 6 11 3 6 - - 0.0
30/06:00pm 11.2 9.6 8.9 86 1.1 SSE 7 13 4 7 - - 0.0
30/05:30pm 11.9 9.2 8.9 82 1.5 SSE 13 19 7 10 - - 0.0
30/05:00pm 12.6 10.2 8.7 77 2.0 SSE 11 17 6 9 - - 0.0
30/04:30pm 13.3 10.1 8.4 72 2.4 SSE 15 24 8 13 - - 0.0
30/04:00pm 14.1 10.9 8.3 68 2.9 S 15 20 8 11 - - 0.0
30/03:30pm 14.4 11.9 8.1 66 3.2 S 11 20 6 11 - - 0.0
30/03:00pm 14.6 11.4 8.3 66 3.2 SSE 15 20 8 11 - - 0.0
30/02:30pm 14.7 10.7 8.2 65 3.3 SSE 19 28 10 15 - - 0.0
30/02:00pm 14.8 11.6 8.5 66 3.2 SSE 15 24 8 13 - - 0.0
30/01:30pm 14.4 10.3 7.7 64 3.3 SSE 19 28 10 15 - - 0.0
30/01:00pm 14.9 10.8 7.9 63 3.5 SSE 19 30 10 16 - - 0.0
30/12:30pm 13.9 9.6 7.9 67 3.0 SSE 20 26 11 14 - - 0.0
30/12:00pm 14.4 10.5 8.8 69 2.8 SSE 19 30 10 16 - - 0.0
30/11:30am 13.6 10.0 8.4 71 2.6 SSE 17 26 9 14 - - 0.0
30/11:00am 13.7 10.3 9.0 73 2.4 SE 17 24 9 13 - - 0.0
30/10:30am 13.9 9.5 9.1 73 2.4 SSE 22 35 12 19 - - 0.0
30/10:00am 13.5 10.2 9.7 78 2.0 SSE 17 26 9 14 - - 0.0
30/09:30am 13.1 10.8 10.6 85 1.3 SSE 13 20 7 11 - - 0.0
30/09:00am 12.2 10.9 9.9 86 1.2 S 7 13 4 7 - - 4.2
30/08:30am 11.4 10.1 9.3 87 1.1 SSE 6 15 3 8 - - 4.2
30/08:00am 11.2 7.9 9.5 89 0.9 SSE 17 28 9 15 - - 4.2
30/07:30am 10.9 8.3 9.5 91 0.7 S 13 24 7 13 - - 4.2
30/07:00am 10.1 9.2 9.2 94 0.4 S 4 9 2 5 - - 4.2
30/06:30am 10.1 8.7 9.0 93 0.5 SSW 6 9 3 5 - - 4.2
30/06:00am 10.5 9.3 9.6 94 0.5 SSW 6 11 3 6 - - 4.2
30/05:30am 10.9 9.6 10.0 94 0.5 SSW 7 13 4 7 - - 4.2
30/05:00am 11.6 9.3 10.5 93 0.6 SSW 13 22 7 12 - - 4.0
30/04:30am 11.6 10.0 10.2 91 0.7 SW 9 15 5 8 - - 3.8
30/04:00am 12.1 9.4 10.5 90 0.8 WSW 15 26 8 14 - - 3.8
30/03:30am 11.7 9.4 10.4 92 0.7 WSW 13 26 7 14 - - 3.8
30/03:00am 12.0 9.3 10.2 89 0.9 WSW 15 26 8 14 - - 3.8
30/02:30am 12.0 9.7 10.4 90 0.8 W 13 35 7 19 - - 3.8
30/02:00am 11.9 10.4 10.6 92 0.7 W 9 17 5 9 - - 3.8
30/01:30am 11.7 9.6 9.9 89 0.9 W 11 20 6 11 - - 3.6
30/01:00am 11.7 9.2 9.8 88 1.0 W 13 20 7 11 - - 3.6
30/12:30am 11.5 9.0 9.8 89 0.9 W 13 20 7 11 - - 3.6
30/12:00am 11.7 9.7 10.3 91 0.7 W 11 17 6 9 - - 3.6
 
Date/Time
CST
Temp
°C
App
Temp
°C
Dew
Point
°C
Rel
Hum
%
Delta-T
°C
Wind Press
QNH
hPa
Press
MSL
hPa
Rain since
9am
mm
Dir  Spd
km/h
Gust
km/h
Spd
kts
Gust
kts
29/11:30pm 11.3 9.3 10.2 93 0.6 W 11 19 6 10 - - 3.6
29/11:00pm 12.2 9.3 9.6 84 1.3 W 15 22 8 12 - - 2.4
29/10:30pm 12.1 10.3 9.5 84 1.3 W 9 15 5 8 - - 2.4
29/10:00pm 11.8 10.3 10.4 91 0.7 WNW 9 15 5 8 - - 2.4
29/09:30pm 11.6 9.7 10.5 93 0.6 NW 11 17 6 9 - - 2.4
29/09:00pm 11.4 10.4 10.3 93 0.6 WNW 6 7 3 4 - - 2.4
29/08:30pm 11.6 10.4 10.3 92 0.7 W 7 11 4 6 - - 2.4
29/08:00pm 11.8 9.8 10.2 90 0.8 WNW 11 24 6 13 - - 2.4
29/07:30pm 11.9 9.9 10.0 88 1.0 NW 11 17 6 9 - - 2.2
29/07:00pm 11.8 9.5 10.4 91 0.7 NW 13 17 7 9 - - 2.2
29/06:30pm 11.8 10.2 10.2 90 0.8 NW 9 17 5 9 - - 2.2
29/06:00pm 11.5 9.7 9.6 88 1.0 WNW 9 13 5 7 - - 2.2
29/05:30pm 12.1 10.7 11.0 93 0.6 NW 9 13 5 7 - - 2.2
29/05:00pm 12.1 10.3 10.7 91 0.7 WNW 11 15 6 8 - - 2.2
29/04:30pm 12.0 10.0 11.5 97 0.3 NW 13 20 7 11 - - 2.2
29/04:00pm 12.3 11.0 11.4 94 0.5 NW 9 19 5 10 - - 2.0
29/03:30pm 12.4 9.9 11.1 92 0.7 NW 15 22 8 12 - - 2.0
29/03:00pm 12.7 11.0 11.3 91 0.7 NW 11 19 6 10 - - 2.0
29/02:30pm 12.5 10.6 11.9 96 0.3 NNW 13 19 7 10 - - 2.0
29/02:00pm 12.4 9.7 11.8 96 0.3 NW 17 28 9 15 - - 2.0
29/01:30pm 12.6 9.4 11.3 92 0.7 NNW 19 28 10 15 - - 0.0
29/01:00pm 12.5 9.4 11.6 94 0.5 NNW 19 28 10 15 - - 0.0
29/12:30pm 11.1 7.8 9.4 89 0.9 N 17 24 9 13 - - 0.0
29/12:00pm 10.9 7.5 9.0 88 0.9 N 17 26 9 14 - - 0.0
29/11:30am 11.0 6.4 8.1 82 1.4 N 22 32 12 17 - - 0.0
29/11:00am 10.7 6.5 8.1 84 1.3 N 20 32 11 17 - - 0.0
29/10:30am 10.7 7.4 7.9 83 1.4 N 15 28 8 15 - - 0.0
29/10:00am 11.2 6.6 6.5 73 2.2 N 20 30 11 16 - - 0.0
29/09:30am 10.6 5.9 5.2 69 2.5 N 19 26 10 14 - - 0.0
29/09:00am 10.4 5.6 4.5 67 2.6 N 19 30 10 16 - - 0.0
29/08:30am 9.7 4.8 3.9 67 2.6 NNE 19 26 10 14 - - 0.0
29/08:00am 9.7 5.1 3.9 67 2.6 NNE 17 26 9 14 - - 0.0
29/07:30am 9.2 5.3 3.6 68 2.4 NNE 13 19 7 10 - - 0.0
29/07:00am 9.5 5.2 3.5 66 2.6 NNE 15 22 8 12 - - 0.0
29/06:30am 9.7 5.1 3.9 67 2.6 NNE 17 24 9 13 - - 0.0
29/06:00am 9.7 5.2 4.3 69 2.4 NNE 17 24 9 13 - - 0.0
29/05:30am 9.6 4.7 4.2 69 2.4 NNE 19 26 10 14 - - 0.0
29/05:00am 9.3 4.8 4.1 70 2.3 NNE 17 26 9 14 - - 0.0
29/04:30am 9.2 5.1 4.4 72 2.1 NNE 15 20 8 11 - - 0.0
29/04:00am 9.5 5.1 4.7 72 2.1 N 17 26 9 14 - - 0.0
29/03:30am 9.2 4.6 3.8 69 2.4 N 17 28 9 15 - - 0.0
29/03:00am 9.2 4.1 3.0 65 2.7 N 19 26 10 14 - - 0.0
29/02:30am 9.5 4.3 2.6 62 2.9 N 19 26 10 14 - - 0.0
29/02:00am 9.9 4.6 2.0 58 3.3 N 19 28 10 15 - - 0.0
29/01:30am 10.4 5.4 1.5 54 3.7 N 17 24 9 13 - - 0.0
29/01:00am 9.7 5.5 1.6 57 3.4 NNE 13 19 7 10 - - 0.0
29/12:30am 9.5 5.3 1.9 59 3.2 NE 13 17 7 9 - - 0.0
29/12:00am 9.8 5.3 2.2 59 3.2 NNE 15 20 8 11 - - 0.0
 
Date/Time
CST
Temp
°C
App
Temp
°C
Dew
Point
°C
Rel
Hum
%
Delta-T
°C
Wind Press
QNH
hPa
Press
MSL
hPa
Rain since
9am
mm
Dir  Spd
km/h
Gust
km/h
Spd
kts
Gust
kts
28/11:30pm 10.0 5.5 2.1 58 3.3 NNE 15 20 8 11 - - 0.0
28/11:00pm 10.1 5.6 2.2 58 3.4 NNE 15 20 8 11 - - 0.0
28/10:30pm 10.0 5.6 2.6 60 3.2 NNE 15 20 8 11 - - 0.0
28/10:00pm 9.9 5.6 3.0 62 3.0 NE 15 20 8 11 - - 0.0
28/09:30pm 10.1 5.8 3.4 63 2.9 NE 15 20 8 11 - - 0.0
28/09:00pm 10.3 6.5 4.0 65 2.8 NE 13 19 7 10 - - 0.0
28/08:30pm 10.5 6.8 4.2 65 2.8 NNE 13 19 7 10 - - 0.0
28/08:00pm 10.5 6.8 4.6 67 2.7 NNE 13 20 7 11 - - 0.0
28/07:30pm 10.6 7.0 5.2 69 2.5 NE 13 19 7 10 - - 0.0
28/07:00pm 10.9 8.1 5.0 67 2.7 NNE 9 13 5 7 - - 0.0
28/06:30pm 11.7 9.1 6.0 68 2.7 NNE 9 15 5 8 - - 0.0
28/06:00pm 12.1 9.2 6.4 68 2.7 NNE 11 17 6 9 - - 0.0
28/05:30pm 12.3 9.9 7.0 70 2.6 N 9 17 5 9 - - 0.0
28/05:00pm 12.8 10.0 6.8 67 2.9 N 11 19 6 10 - - 0.0
28/04:30pm 13.5 9.9 6.8 64 3.2 N 15 24 8 13 - - 0.0
28/04:00pm 14.0 10.0 6.6 61 3.6 N 17 28 9 15 - - 0.0
28/03:30pm 13.9 9.3 6.3 60 3.6 N 20 30 11 16 - - 0.0
28/03:00pm 14.0 9.2 5.6 57 4.0 N 20 30 11 16 - - 0.0
28/02:30pm 14.1 9.6 6.2 59 3.8 N 19 28 10 15 - - 0.0
28/02:00pm 13.8 9.2 5.7 58 3.8 N 19 30 10 16 - - 0.0
28/01:30pm 13.9 9.3 5.5 57 4.0 N 19 28 10 15 - - 0.0
28/01:00pm 13.8 8.5 4.9 55 4.1 N 22 32 12 17 - - 0.0
28/12:30pm 14.1 9.0 4.1 51 4.6 N 20 32 11 17 - - 0.0
28/12:00pm 14.1 9.3 4.4 52 4.5 N 19 28 10 15 - - 0.0
28/11:30am 13.4 8.2 3.5 51 4.5 N 20 32 11 17 - - 0.0
28/11:00am 12.9 7.7 3.8 54 4.1 N 20 33 11 18 - - 0.0
28/10:30am 12.5 7.4 3.2 53 4.1 N 19 30 10 16 - - 0.0
28/10:00am 12.4 7.7 3.1 53 4.1 N 17 30 9 16 - - 0.0
28/09:30am 12.0 7.7 3.0 54 4.0 N 15 24 8 13 - - 0.0
28/09:00am 11.4 6.2 2.7 55 3.8 NNE 19 28 10 15 - - 0.0
28/08:30am 10.6 6.6 2.7 58 3.4 NNE 13 19 7 10 - - 0.0
28/08:00am 9.8 5.7 2.4 60 3.1 NNE 13 19 7 10 - - 0.0
28/07:30am 9.3 4.8 2.4 62 2.9 NNE 15 22 8 12 - - 0.0
28/07:00am 9.0 5.0 2.6 64 2.7 NNE 13 19 7 10 - - 0.0
28/06:30am 8.7 3.9 2.7 66 2.5 NE 17 20 9 11 - - 0.0
28/06:00am 8.7 4.3 2.9 67 2.5 NE 15 20 8 11 - - 0.0
28/05:30am 8.5 4.5 3.1 69 2.3 NE 13 19 7 10 - - 0.0
28/05:00am 9.0 5.0 3.0 66 2.6 NNE 13 19 7 10 - - 0.0
28/04:30am 8.7 4.8 3.3 69 2.3 NE 13 17 7 9 - - 0.0
28/04:00am 8.5 5.4 3.4 70 2.2 NE 9 11 5 6 - - 0.0
28/03:30am 8.6 5.1 3.4 70 2.2 NE 11 15 6 8 - - 0.0
28/03:00am 8.7 4.9 3.7 71 2.2 NE 13 17 7 9 - - 0.0
28/02:30am 8.6 5.2 3.8 72 2.1 NE 11 13 6 7 - - 0.0
28/02:00am 8.1 5.6 3.6 73 1.9 NE 6 9 3 5 - - 0.0
28/01:30am 8.3 5.6 3.8 73 1.9 NE 7 11 4 6 - - 0.0
28/01:00am 7.8 5.3 3.7 75 1.8 ENE 6 9 3 5 - - 0.0
28/12:30am 8.5 5.8 3.9 73 2.0 NE 7 11 4 6 - - 0.0
28/12:00am 7.9 5.0 4.5 79 1.5 ENE 9 13 5 7 - - 0.0
 
Date/Time
CST
Temp
°C
App
Temp
°C
Dew
Point
°C
Rel
Hum
%
Delta-T
°C
Wind Press
QNH
hPa
Press
MSL
hPa
Rain since
9am
mm
Dir  Spd
km/h
Gust
km/h
Spd
kts
Gust
kts
27/11:30pm 6.8 4.0 5.0 88 0.8 ENE 9 11 5 6 - - 0.0
27/11:00pm 6.4 4.1 5.0 91 0.6 ENE 6 7 3 4 - - 0.0
27/10:30pm 7.0 5.2 5.5 90 0.7 ENE 4 6 2 3 - - 0.0
27/10:00pm 7.6 5.5 5.9 89 0.8 ENE 6 7 3 4 - - 0.0
27/09:30pm 7.6 5.4 6.2 91 0.6 ENE 7 9 4 5 - - 0.0
27/09:00pm 7.7 5.5 6.3 91 0.6 ENE 7 11 4 6 - - 0.0

Latest Capital City Observations: Canberra | Sydney | Melbourne | Brisbane | Adelaide | Perth | Hobart | Darwin

Other formats

Comma delimited format used in spreadsheet applications
http://www.bom.gov.au/fwo/IDS60901/IDS60901.94808.axf

JavaScript Object Notation format (JSON) in row-major order
http://www.bom.gov.au/fwo/IDS60901/IDS60901.94808.json

Data quality

Most of these data are generated automatically and are frequently updated. Quality checks on data are not normally performed. It is possible for incorrect values to appear. Refer to information at About Latest Weather Observations and please check the disclaimer before using these data.